sensor_id;sensor_type;location;lat;lon;timestamp;P1;durP1;ratioP1;P2;durP2;ratioP2
34200;SDS011;20469;55.638;37.670;2023-04-01T00:01:48;17.67;;;13.68;;
34200;SDS011;20469;55.638;37.670;2023-04-01T00:04:15;21.58;;;14.35;;
34200;SDS011;20469;55.638;37.670;2023-04-01T00:06:43;17.08;;;12.68;;
34200;SDS011;20469;55.638;37.670;2023-04-01T00:09:10;18.60;;;13.43;;
34200;SDS011;20469;55.638;37.670;2023-04-01T00:11:37;19.55;;;13.52;;
34200;SDS011;20469;55.638;37.670;2023-04-01T00:14:05;18.42;;;12.95;;
34200;SDS011;20469;55.638;37.670;2023-04-01T00:16:33;16.35;;;12.27;;
34200;SDS011;20469;55.638;37.670;2023-04-01T00:19:00;17.67;;;12.75;;
34200;SDS011;20469;55.638;37.670;2023-04-01T00:21:27;18.08;;;12.98;;
34200;SDS011;20469;55.638;37.670;2023-04-01T00:23:55;18.73;;;13.10;;
34200;SDS011;20469;55.638;37.670;2023-04-01T00:26:22;15.45;;;12.18;;
34200;SDS011;20469;55.638;37.670;2023-04-01T00:28:49;17.52;;;12.32;;
34200;SDS011;20469;55.638;37.670;2023-04-01T00:31:16;19.90;;;12.20;;
34200;SDS011;20469;55.638;37.670;2023-04-01T00:33:44;18.45;;;12.73;;
34200;SDS011;20469;55.638;37.670;2023-04-01T00:36:14;17.58;;;12.20;;
34200;SDS011;20469;55.638;37.670;2023-04-01T00:41:12;16.25;;;11.50;;
34200;SDS011;20469;55.638;37.670;2023-04-01T00:43:43;14.77;;;10.88;;
34200;SDS011;20469;55.638;37.670;2023-04-01T00:46:12;15.00;;;10.85;;
34200;SDS011;20469;55.638;37.670;2023-04-01T00:48:41;16.23;;;11.93;;
34200;SDS011;20469;55.638;37.670;2023-04-01T00:51:14;14.57;;;11.45;;
34200;SDS011;20469;55.638;37.670;2023-04-01T00:53:45;14.32;;;11.18;;
34200;SDS011;20469;55.638;37.670;2023-04-01T00:58:52;14.45;;;10.82;;
34200;SDS011;20469;55.638;37.670;2023-04-01T01:01:26;15.82;;;11.18;;
34200;SDS011;20469;55.638;37.670;2023-04-01T01:03:56;17.08;;;11.98;;
34200;SDS011;20469;55.638;37.670;2023-04-01T01:06:30;14.80;;;10.40;;
34200;SDS011;20469;55.638;37.670;2023-04-01T01:11:50;14.60;;;10.80;;
34200;SDS011;20469;55.638;37.670;2023-04-01T01:17:07;15.10;;;11.32;;
34200;SDS011;20469;55.638;37.670;2023-04-01T01:25:32;14.57;;;10.68;;
34200;SDS011;20469;55.638;37.670;2023-04-01T01:28:20;14.80;;;10.95;;
34200;SDS011;20469;55.638;37.670;2023-04-01T01:30:52;19.42;;;11.25;;
34200;SDS011;20469;55.638;37.670;2023-04-01T01:33:35;15.52;;;11.55;;
34200;SDS011;20469;55.638;37.670;2023-04-01T01:36:26;18.15;;;12.10;;
34200;SDS011;20469;55.638;37.670;2023-04-01T01:38:57;15.50;;;11.95;;
34200;SDS011;20469;55.638;37.670;2023-04-01T01:41:25;17.98;;;11.50;;
34200;SDS011;20469;55.638;37.670;2023-04-01T01:43:53;15.15;;;11.57;;
34200;SDS011;20469;55.638;37.670;2023-04-01T01:46:24;17.75;;;12.55;;
34200;SDS011;20469;55.638;37.670;2023-04-01T01:48:54;17.63;;;12.75;;
34200;SDS011;20469;55.638;37.670;2023-04-01T01:51:22;17.33;;;12.80;;
34200;SDS011;20469;55.638;37.670;2023-04-01T01:53:50;17.08;;;12.95;;
34200;SDS011;20469;55.638;37.670;2023-04-01T01:56:17;19.10;;;13.32;;
34200;SDS011;20469;55.638;37.670;2023-04-01T01:58:49;17.15;;;13.05;;
34200;SDS011;20469;55.638;37.670;2023-04-01T02:01:23;19.45;;;12.85;;
34200;SDS011;20469;55.638;37.670;2023-04-01T02:03:53;18.48;;;13.88;;
34200;SDS011;20469;55.638;37.670;2023-04-01T02:06:22;17.83;;;13.48;;
34200;SDS011;20469;55.638;37.670;2023-04-01T02:08:53;19.40;;;13.43;;
34200;SDS011;20469;55.638;37.670;2023-04-01T02:14:17;19.70;;;13.18;;
34200;SDS011;20469;55.638;37.670;2023-04-01T02:16:58;18.27;;;13.35;;
34200;SDS011;20469;55.638;37.670;2023-04-01T02:19:44;18.67;;;13.40;;
34200;SDS011;20469;55.638;37.670;2023-04-01T02:22:22;20.10;;;14.00;;
34200;SDS011;20469;55.638;37.670;2023-04-01T02:24:54;20.02;;;13.75;;
34200;SDS011;20469;55.638;37.670;2023-04-01T02:27:26;18.52;;;13.52;;
34200;SDS011;20469;55.638;37.670;2023-04-01T02:29:53;18.25;;;13.40;;
34200;SDS011;20469;55.638;37.670;2023-04-01T02:32:20;18.40;;;13.15;;
34200;SDS011;20469;55.638;37.670;2023-04-01T02:34:48;16.27;;;13.15;;
34200;SDS011;20469;55.638;37.670;2023-04-01T02:37:16;17.05;;;12.93;;
34200;SDS011;20469;55.638;37.670;2023-04-01T02:39:44;17.70;;;13.18;;
34200;SDS011;20469;55.638;37.670;2023-04-01T02:42:11;18.17;;;13.25;;
34200;SDS011;20469;55.638;37.670;2023-04-01T02:44:39;15.95;;;12.45;;
34200;SDS011;20469;55.638;37.670;2023-04-01T02:47:06;19.45;;;13.85;;
34200;SDS011;20469;55.638;37.670;2023-04-01T02:49:33;17.63;;;13.18;;
34200;SDS011;20469;55.638;37.670;2023-04-01T02:52:01;18.35;;;12.70;;
34200;SDS011;20469;55.638;37.670;2023-04-01T02:54:28;17.65;;;13.60;;
34200;SDS011;20469;55.638;37.670;2023-04-01T02:56:55;17.25;;;13.10;;
34200;SDS011;20469;55.638;37.670;2023-04-01T02:59:22;17.38;;;12.80;;
34200;SDS011;20469;55.638;37.670;2023-04-01T03:01:49;17.15;;;12.63;;
34200;SDS011;20469;55.638;37.670;2023-04-01T03:04:16;17.70;;;12.90;;
34200;SDS011;20469;55.638;37.670;2023-04-01T03:06:43;17.77;;;13.00;;
34200;SDS011;20469;55.638;37.670;2023-04-01T03:09:11;19.20;;;13.43;;
34200;SDS011;20469;55.638;37.670;2023-04-01T03:11:38;17.83;;;12.43;;
34200;SDS011;20469;55.638;37.670;2023-04-01T03:14:05;16.95;;;12.70;;
34200;SDS011;20469;55.638;37.670;2023-04-01T03:16:34;19.55;;;13.90;;
34200;SDS011;20469;55.638;37.670;2023-04-01T03:19:01;19.35;;;13.65;;
34200;SDS011;20469;55.638;37.670;2023-04-01T03:21:29;18.90;;;13.23;;
34200;SDS011;20469;55.638;37.670;2023-04-01T03:23:56;18.45;;;13.82;;
34200;SDS011;20469;55.638;37.670;2023-04-01T03:26:23;18.55;;;13.48;;
34200;SDS011;20469;55.638;37.670;2023-04-01T03:28:50;19.00;;;13.82;;
34200;SDS011;20469;55.638;37.670;2023-04-01T03:31:17;19.48;;;13.50;;
34200;SDS011;20469;55.638;37.670;2023-04-01T03:33:48;18.23;;;13.43;;
34200;SDS011;20469;55.638;37.670;2023-04-01T03:36:16;18.63;;;14.05;;
34200;SDS011;20469;55.638;37.670;2023-04-01T03:38:44;18.42;;;13.48;;
34200;SDS011;20469;55.638;37.670;2023-04-01T03:41:14;19.90;;;14.50;;
34200;SDS011;20469;55.638;37.670;2023-04-01T03:43:42;18.42;;;13.80;;
34200;SDS011;20469;55.638;37.670;2023-04-01T03:46:10;19.48;;;14.32;;
34200;SDS011;20469;55.638;37.670;2023-04-01T03:48:37;21.55;;;14.35;;
34200;SDS011;20469;55.638;37.670;2023-04-01T03:51:08;18.73;;;13.27;;
34200;SDS011;20469;55.638;37.670;2023-04-01T03:53:35;17.65;;;13.18;;
34200;SDS011;20469;55.638;37.670;2023-04-01T03:56:03;20.85;;;14.38;;
34200;SDS011;20469;55.638;37.670;2023-04-01T03:58:31;22.83;;;16.67;;
34200;SDS011;20469;55.638;37.670;2023-04-01T04:00:59;25.65;;;16.92;;
34200;SDS011;20469;55.638;37.670;2023-04-01T04:03:26;23.95;;;17.02;;
34200;SDS011;20469;55.638;37.670;2023-04-01T04:05:53;26.42;;;18.35;;
34200;SDS011;20469;55.638;37.670;2023-04-01T04:08:22;23.00;;;16.58;;
34200;SDS011;20469;55.638;37.670;2023-04-01T04:10:54;23.23;;;15.95;;
34200;SDS011;20469;55.638;37.670;2023-04-01T04:13:22;23.20;;;15.48;;
34200;SDS011;20469;55.638;37.670;2023-04-01T04:15:49;22.85;;;15.85;;
34200;SDS011;20469;55.638;37.670;2023-04-01T04:18:16;20.77;;;14.15;;
34200;SDS011;20469;55.638;37.670;2023-04-01T04:20:46;19.13;;;13.40;;
34200;SDS011;20469;55.638;37.670;2023-04-01T04:23:17;18.77;;;13.90;;
34200;SDS011;20469;55.638;37.670;2023-04-01T04:25:57;19.50;;;13.57;;
34200;SDS011;20469;55.638;37.670;2023-04-01T04:28:30;16.73;;;12.75;;
34200;SDS011;20469;55.638;37.670;2023-04-01T04:30:58;18.48;;;12.50;;
34200;SDS011;20469;55.638;37.670;2023-04-01T04:33:26;19.33;;;12.65;;
34200;SDS011;20469;55.638;37.670;2023-04-01T04:35:55;18.38;;;12.23;;
34200;SDS011;20469;55.638;37.670;2023-04-01T04:38:23;16.35;;;11.38;;
34200;SDS011;20469;55.638;37.670;2023-04-01T04:40:51;16.17;;;11.27;;
34200;SDS011;20469;55.638;37.670;2023-04-01T04:43:18;17.67;;;12.82;;
34200;SDS011;20469;55.638;37.670;2023-04-01T04:45:46;16.02;;;11.57;;
34200;SDS011;20469;55.638;37.670;2023-04-01T04:48:14;16.67;;;11.50;;
34200;SDS011;20469;55.638;37.670;2023-04-01T04:50:48;15.32;;;10.75;;
34200;SDS011;20469;55.638;37.670;2023-04-01T04:53:16;17.42;;;11.18;;
34200;SDS011;20469;55.638;37.670;2023-04-01T04:55:45;16.08;;;11.10;;
34200;SDS011;20469;55.638;37.670;2023-04-01T04:58:14;14.13;;;11.15;;
34200;SDS011;20469;55.638;37.670;2023-04-01T05:00:41;16.30;;;11.57;;
34200;SDS011;20469;55.638;37.670;2023-04-01T05:03:09;15.63;;;11.35;;
34200;SDS011;20469;55.638;37.670;2023-04-01T05:05:37;14.77;;;11.13;;
34200;SDS011;20469;55.638;37.670;2023-04-01T05:08:05;16.73;;;11.52;;
34200;SDS011;20469;55.638;37.670;2023-04-01T05:10:33;14.23;;;10.63;;
34200;SDS011;20469;55.638;37.670;2023-04-01T05:13:00;15.50;;;10.82;;
34200;SDS011;20469;55.638;37.670;2023-04-01T05:15:27;17.08;;;12.30;;
34200;SDS011;20469;55.638;37.670;2023-04-01T05:17:54;17.08;;;12.63;;
34200;SDS011;20469;55.638;37.670;2023-04-01T05:20:21;14.88;;;10.98;;
34200;SDS011;20469;55.638;37.670;2023-04-01T05:22:48;14.73;;;10.95;;
34200;SDS011;20469;55.638;37.670;2023-04-01T05:25:15;13.77;;;9.60;;
34200;SDS011;20469;55.638;37.670;2023-04-01T05:27:42;13.43;;;9.75;;
34200;SDS011;20469;55.638;37.670;2023-04-01T05:30:10;13.45;;;10.15;;
34200;SDS011;20469;55.638;37.670;2023-04-01T05:32:37;11.88;;;8.80;;
34200;SDS011;20469;55.638;37.670;2023-04-01T05:35:04;12.68;;;9.68;;
34200;SDS011;20469;55.638;37.670;2023-04-01T05:37:33;13.75;;;9.48;;
34200;SDS011;20469;55.638;37.670;2023-04-01T05:40:01;13.85;;;9.88;;
34200;SDS011;20469;55.638;37.670;2023-04-01T05:42:29;15.15;;;9.45;;
34200;SDS011;20469;55.638;37.670;2023-04-01T05:44:56;15.05;;;10.52;;
34200;SDS011;20469;55.638;37.670;2023-04-01T05:47:23;12.93;;;9.70;;
34200;SDS011;20469;55.638;37.670;2023-04-01T05:49:50;13.00;;;9.45;;
34200;SDS011;20469;55.638;37.670;2023-04-01T05:52:17;14.82;;;9.50;;
34200;SDS011;20469;55.638;37.670;2023-04-01T05:54:44;12.93;;;9.57;;
34200;SDS011;20469;55.638;37.670;2023-04-01T05:57:11;13.77;;;9.93;;
34200;SDS011;20469;55.638;37.670;2023-04-01T05:59:38;13.05;;;10.13;;
34200;SDS011;20469;55.638;37.670;2023-04-01T06:02:06;17.02;;;11.70;;
34200;SDS011;20469;55.638;37.670;2023-04-01T06:04:36;14.70;;;10.10;;
34200;SDS011;20469;55.638;37.670;2023-04-01T06:07:13;15.48;;;10.50;;
34200;SDS011;20469;55.638;37.670;2023-04-01T06:09:42;19.02;;;11.35;;
34200;SDS011;20469;55.638;37.670;2023-04-01T06:15:53;14.48;;;10.25;;
34200;SDS011;20469;55.638;37.670;2023-04-01T06:26:10;15.60;;;11.35;;
34200;SDS011;20469;55.638;37.670;2023-04-01T06:28:49;15.98;;;11.40;;
34200;SDS011;20469;55.638;37.670;2023-04-01T06:31:55;18.73;;;11.55;;
34200;SDS011;20469;55.638;37.670;2023-04-01T06:37:34;17.50;;;11.55;;
34200;SDS011;20469;55.638;37.670;2023-04-01T06:40:24;12.65;;;8.77;;
34200;SDS011;20469;55.638;37.670;2023-04-01T06:43:01;14.90;;;10.18;;
34200;SDS011;20469;55.638;37.670;2023-04-01T06:51:35;18.25;;;12.45;;
34200;SDS011;20469;55.638;37.670;2023-04-01T06:54:20;20.88;;;12.35;;
34200;SDS011;20469;55.638;37.670;2023-04-01T06:56:54;19.55;;;13.15;;
34200;SDS011;20469;55.638;37.670;2023-04-01T06:59:30;18.33;;;13.10;;
34200;SDS011;20469;55.638;37.670;2023-04-01T07:04:53;22.33;;;13.85;;
34200;SDS011;20469;55.638;37.670;2023-04-01T07:10:13;22.45;;;14.10;;
34200;SDS011;20469;55.638;37.670;2023-04-01T07:12:51;21.35;;;13.48;;
34200;SDS011;20469;55.638;37.670;2023-04-01T07:15:24;24.08;;;13.70;;
34200;SDS011;20469;55.638;37.670;2023-04-01T07:17:59;20.75;;;13.98;;
34200;SDS011;20469;55.638;37.670;2023-04-01T07:20:32;20.25;;;13.90;;
34200;SDS011;20469;55.638;37.670;2023-04-01T07:23:44;20.98;;;14.07;;
34200;SDS011;20469;55.638;37.670;2023-04-01T07:26:19;22.75;;;14.77;;
34200;SDS011;20469;55.638;37.670;2023-04-01T07:28:47;19.23;;;13.65;;
34200;SDS011;20469;55.638;37.670;2023-04-01T07:33:49;19.88;;;12.95;;
34200;SDS011;20469;55.638;37.670;2023-04-01T07:41:50;19.92;;;13.85;;
34200;SDS011;20469;55.638;37.670;2023-04-01T07:50:28;23.00;;;14.38;;
34200;SDS011;20469;55.638;37.670;2023-04-01T07:55:46;20.02;;;13.82;;
34200;SDS011;20469;55.638;37.670;2023-04-01T08:04:00;20.77;;;13.95;;
34200;SDS011;20469;55.638;37.670;2023-04-01T08:20:57;16.75;;;12.10;;
34200;SDS011;20469;55.638;37.670;2023-04-01T08:23:27;18.13;;;12.30;;
34200;SDS011;20469;55.638;37.670;2023-04-01T08:26:04;16.67;;;12.35;;
34200;SDS011;20469;55.638;37.670;2023-04-01T08:31:36;16.67;;;12.10;;
34200;SDS011;20469;55.638;37.670;2023-04-01T08:34:15;15.50;;;11.88;;
34200;SDS011;20469;55.638;37.670;2023-04-01T08:36:59;14.43;;;11.75;;
34200;SDS011;20469;55.638;37.670;2023-04-01T08:39:36;16.17;;;12.38;;
34200;SDS011;20469;55.638;37.670;2023-04-01T08:58:53;14.93;;;11.27;;
34200;SDS011;20469;55.638;37.670;2023-04-01T09:07:07;14.80;;;10.82;;
34200;SDS011;20469;55.638;37.670;2023-04-01T09:12:38;14.18;;;11.02;;
34200;SDS011;20469;55.638;37.670;2023-04-01T09:15:34;10.07;;;8.55;;
34200;SDS011;20469;55.638;37.670;2023-04-01T09:56:52;8.13;;;6.25;;
34200;SDS011;20469;55.638;37.670;2023-04-01T10:10:56;8.25;;;6.95;;
34200;SDS011;20469;55.638;37.670;2023-04-01T10:16:55;7.82;;;5.97;;
34200;SDS011;20469;55.638;37.670;2023-04-01T10:19:55;6.55;;;5.57;;
34200;SDS011;20469;55.638;37.670;2023-04-01T10:25:42;7.55;;;5.40;;
34200;SDS011;20469;55.638;37.670;2023-04-01T10:36:52;6.55;;;5.80;;
34200;SDS011;20469;55.638;37.670;2023-04-01T10:42:08;5.95;;;5.28;;
34200;SDS011;20469;55.638;37.670;2023-04-01T10:58:36;6.43;;;4.88;;
34200;SDS011;20469;55.638;37.670;2023-04-01T11:16:13;6.82;;;4.13;;
34200;SDS011;20469;55.638;37.670;2023-04-01T11:33:19;8.90;;;4.63;;
34200;SDS011;20469;55.638;37.670;2023-04-01T11:36:03;6.75;;;4.72;;
34200;SDS011;20469;55.638;37.670;2023-04-01T11:44:25;8.88;;;4.75;;
34200;SDS011;20469;55.638;37.670;2023-04-01T11:49:46;12.20;;;8.00;;
34200;SDS011;20469;55.638;37.670;2023-04-01T11:55:05;9.85;;;6.13;;
34200;SDS011;20469;55.638;37.670;2023-04-01T12:03:37;13.77;;;7.03;;
34200;SDS011;20469;55.638;37.670;2023-04-01T12:14:43;10.33;;;7.20;;
34200;SDS011;20469;55.638;37.670;2023-04-01T12:17:46;10.75;;;6.47;;
34200;SDS011;20469;55.638;37.670;2023-04-01T12:28:41;8.00;;;6.05;;
34200;SDS011;20469;55.638;37.670;2023-04-01T12:45:33;9.10;;;6.03;;
34200;SDS011;20469;55.638;37.670;2023-04-01T12:56:28;11.27;;;5.95;;
34200;SDS011;20469;55.638;37.670;2023-04-01T13:16:16;13.32;;;6.43;;
34200;SDS011;20469;55.638;37.670;2023-04-01T13:24:44;8.80;;;5.63;;
34200;SDS011;20469;55.638;37.670;2023-04-01T13:43:35;8.95;;;5.90;;
34200;SDS011;20469;55.638;37.670;2023-04-01T13:46:34;15.20;;;9.20;;
34200;SDS011;20469;55.638;37.670;2023-04-01T13:49:09;9.30;;;5.72;;
34200;SDS011;20469;55.638;37.670;2023-04-01T14:08:26;11.65;;;5.97;;
34200;SDS011;20469;55.638;37.670;2023-04-01T14:11:13;10.40;;;6.07;;
34200;SDS011;20469;55.638;37.670;2023-04-01T14:19:59;9.45;;;6.18;;
34200;SDS011;20469;55.638;37.670;2023-04-01T14:28:39;10.43;;;6.35;;
34200;SDS011;20469;55.638;37.670;2023-04-01T14:31:20;9.70;;;6.78;;
34200;SDS011;20469;55.638;37.670;2023-04-01T14:47:58;11.23;;;7.75;;
34200;SDS011;20469;55.638;37.670;2023-04-01T14:50:43;11.63;;;7.32;;
34200;SDS011;20469;55.638;37.670;2023-04-01T14:55:51;10.18;;;7.65;;
34200;SDS011;20469;55.638;37.670;2023-04-01T14:58:24;11.15;;;8.05;;
34200;SDS011;20469;55.638;37.670;2023-04-01T15:03:33;12.48;;;8.57;;
34200;SDS011;20469;55.638;37.670;2023-04-01T15:06:19;10.77;;;7.45;;
34200;SDS011;20469;55.638;37.670;2023-04-01T15:12:16;11.45;;;8.65;;
34200;SDS011;20469;55.638;37.670;2023-04-01T15:14:54;11.63;;;8.30;;
34200;SDS011;20469;55.638;37.670;2023-04-01T15:26:35;12.07;;;8.63;;
34200;SDS011;20469;55.638;37.670;2023-04-01T15:40:15;14.75;;;9.98;;
34200;SDS011;20469;55.638;37.670;2023-04-01T16:02:31;11.80;;;9.00;;
34200;SDS011;20469;55.638;37.670;2023-04-01T16:25:27;12.80;;;8.90;;
34200;SDS011;20469;55.638;37.670;2023-04-01T16:30:58;12.18;;;8.85;;
34200;SDS011;20469;55.638;37.670;2023-04-01T16:33:35;12.23;;;9.02;;
34200;SDS011;20469;55.638;37.670;2023-04-01T16:36:20;13.57;;;8.95;;
34200;SDS011;20469;55.638;37.670;2023-04-01T16:42:22;16.25;;;9.43;;
34200;SDS011;20469;55.638;37.670;2023-04-01T16:44:53;11.68;;;8.98;;
34200;SDS011;20469;55.638;37.670;2023-04-01T16:47:49;12.80;;;8.93;;
34200;SDS011;20469;55.638;37.670;2023-04-01T16:50:21;13.88;;;9.60;;
34200;SDS011;20469;55.638;37.670;2023-04-01T16:56:22;11.40;;;8.65;;
34200;SDS011;20469;55.638;37.670;2023-04-01T17:01:30;16.10;;;9.10;;
34200;SDS011;20469;55.638;37.670;2023-04-01T17:04:26;13.48;;;9.43;;
34200;SDS011;20469;55.638;37.670;2023-04-01T17:07:27;11.88;;;9.00;;
34200;SDS011;20469;55.638;37.670;2023-04-01T17:15:46;12.15;;;8.68;;
34200;SDS011;20469;55.638;37.670;2023-04-01T17:21:45;11.73;;;8.18;;
34200;SDS011;20469;55.638;37.670;2023-04-01T17:27:44;12.90;;;9.02;;
34200;SDS011;20469;55.638;37.670;2023-04-01T17:46:59;13.35;;;9.57;;
34200;SDS011;20469;55.638;37.670;2023-04-01T17:49:54;13.02;;;8.65;;
34200;SDS011;20469;55.638;37.670;2023-04-01T18:01:45;14.52;;;10.65;;
34200;SDS011;20469;55.638;37.670;2023-04-01T18:04:08;15.02;;;10.77;;
34200;SDS011;20469;55.638;37.670;2023-04-01T18:07:26;13.80;;;9.88;;
34200;SDS011;20469;55.638;37.670;2023-04-01T18:15:39;12.68;;;9.10;;
34200;SDS011;20469;55.638;37.670;2023-04-01T18:26:32;13.35;;;10.20;;
34200;SDS011;20469;55.638;37.670;2023-04-01T18:29:13;13.27;;;9.55;;
34200;SDS011;20469;55.638;37.670;2023-04-01T18:31:45;15.23;;;10.80;;
34200;SDS011;20469;55.638;37.670;2023-04-01T18:37:17;15.02;;;10.13;;
34200;SDS011;20469;55.638;37.670;2023-04-01T18:48:14;13.35;;;9.57;;
34200;SDS011;20469;55.638;37.670;2023-04-01T18:51:03;17.55;;;10.27;;
34200;SDS011;20469;55.638;37.670;2023-04-01T18:53:41;15.50;;;10.07;;
34200;SDS011;20469;55.638;37.670;2023-04-01T18:56:24;13.85;;;10.68;;
34200;SDS011;20469;55.638;37.670;2023-04-01T19:01:25;15.82;;;10.80;;
34200;SDS011;20469;55.638;37.670;2023-04-01T19:04:03;14.50;;;10.85;;
34200;SDS011;20469;55.638;37.670;2023-04-01T19:06:51;15.77;;;11.38;;
34200;SDS011;20469;55.638;37.670;2023-04-01T19:09:23;15.43;;;11.25;;
34200;SDS011;20469;55.638;37.670;2023-04-01T19:25:40;17.05;;;10.52;;
34200;SDS011;20469;55.638;37.670;2023-04-01T19:30:55;17.45;;;10.77;;
34200;SDS011;20469;55.638;37.670;2023-04-01T19:36:52;16.08;;;11.05;;
34200;SDS011;20469;55.638;37.670;2023-04-01T19:53:44;15.30;;;10.52;;
34200;SDS011;20469;55.638;37.670;2023-04-01T19:56:24;17.52;;;11.20;;
34200;SDS011;20469;55.638;37.670;2023-04-01T20:01:44;16.23;;;10.82;;
34200;SDS011;20469;55.638;37.670;2023-04-01T20:04:27;16.17;;;10.95;;
34200;SDS011;20469;55.638;37.670;2023-04-01T20:07:07;18.17;;;12.00;;
34200;SDS011;20469;55.638;37.670;2023-04-01T20:15:35;18.67;;;12.10;;
34200;SDS011;20469;55.638;37.670;2023-04-01T20:20:57;16.85;;;11.63;;
34200;SDS011;20469;55.638;37.670;2023-04-01T20:23:44;20.25;;;12.35;;
34200;SDS011;20469;55.638;37.670;2023-04-01T20:26:14;15.90;;;11.23;;
34200;SDS011;20469;55.638;37.670;2023-04-01T20:34:34;16.17;;;11.77;;
34200;SDS011;20469;55.638;37.670;2023-04-01T20:37:39;16.35;;;11.93;;
34200;SDS011;20469;55.638;37.670;2023-04-01T20:45:58;18.45;;;12.98;;
34200;SDS011;20469;55.638;37.670;2023-04-01T20:51:13;19.02;;;12.35;;
34200;SDS011;20469;55.638;37.670;2023-04-01T21:04:22;18.30;;;12.43;;
34200;SDS011;20469;55.638;37.670;2023-04-01T21:16:13;19.05;;;12.70;;
34200;SDS011;20469;55.638;37.670;2023-04-01T21:18:48;18.60;;;12.35;;
34200;SDS011;20469;55.638;37.670;2023-04-01T21:32:34;18.13;;;12.27;;
34200;SDS011;20469;55.638;37.670;2023-04-01T21:38:51;17.75;;;12.85;;
34200;SDS011;20469;55.638;37.670;2023-04-01T21:41:39;16.67;;;12.35;;
34200;SDS011;20469;55.638;37.670;2023-04-01T21:58:39;18.17;;;12.45;;
34200;SDS011;20469;55.638;37.670;2023-04-01T22:01:51;19.65;;;13.30;;
34200;SDS011;20469;55.638;37.670;2023-04-01T22:13:57;19.05;;;12.93;;
34200;SDS011;20469;55.638;37.670;2023-04-01T22:19:33;17.70;;;12.45;;
34200;SDS011;20469;55.638;37.670;2023-04-01T22:24:55;22.55;;;13.38;;
34200;SDS011;20469;55.638;37.670;2023-04-01T22:27:45;17.97;;;12.90;;
34200;SDS011;20469;55.638;37.670;2023-04-01T22:30:22;18.85;;;13.23;;
34200;SDS011;20469;55.638;37.670;2023-04-01T22:32:59;21.63;;;13.90;;
34200;SDS011;20469;55.638;37.670;2023-04-01T22:35:40;18.23;;;12.65;;
34200;SDS011;20469;55.638;37.670;2023-04-01T22:43:18;18.75;;;12.82;;
34200;SDS011;20469;55.638;37.670;2023-04-01T22:59:44;24.52;;;14.10;;
34200;SDS011;20469;55.638;37.670;2023-04-01T23:02:26;21.65;;;14.18;;
34200;SDS011;20469;55.638;37.670;2023-04-01T23:05:00;19.65;;;13.77;;
34200;SDS011;20469;55.638;37.670;2023-04-01T23:10:30;21.77;;;13.70;;
34200;SDS011;20469;55.638;37.670;2023-04-01T23:13:16;21.58;;;14.02;;
34200;SDS011;20469;55.638;37.670;2023-04-01T23:15:48;22.95;;;15.30;;
34200;SDS011;20469;55.638;37.670;2023-04-01T23:21:16;22.08;;;14.48;;
34200;SDS011;20469;55.638;37.670;2023-04-01T23:26:52;27.70;;;16.55;;
34200;SDS011;20469;55.638;37.670;2023-04-01T23:29:28;22.35;;;14.98;;
34200;SDS011;20469;55.638;37.670;2023-04-01T23:31:57;26.58;;;16.20;;
34200;SDS011;20469;55.638;37.670;2023-04-01T23:34:32;26.77;;;17.05;;
34200;SDS011;20469;55.638;37.670;2023-04-01T23:37:04;26.13;;;15.88;;
34200;SDS011;20469;55.638;37.670;2023-04-01T23:39:38;24.55;;;16.00;;
34200;SDS011;20469;55.638;37.670;2023-04-01T23:44:41;25.17;;;15.55;;
34200;SDS011;20469;55.638;37.670;2023-04-01T23:47:12;27.63;;;17.10;;
34200;SDS011;20469;55.638;37.670;2023-04-01T23:50:06;23.67;;;16.33;;
34200;SDS011;20469;55.638;37.670;2023-04-01T23:52:40;29.63;;;18.10;;
34200;SDS011;20469;55.638;37.670;2023-04-01T23:55:21;28.52;;;16.67;;
34200;SDS011;20469;55.638;37.670;2023-04-01T23:58:12;25.92;;;16.63;;
